createdAt,value
2018-07-25T00:01:24.018Z,20.84
2018-07-25T00:03:53.247Z,20.82
2018-07-25T00:06:22.856Z,20.79
2018-07-25T00:08:52.780Z,20.73
2018-07-25T00:11:22.170Z,20.65
2018-07-25T00:13:51.795Z,20.60
2018-07-25T00:16:21.461Z,20.58
2018-07-25T00:18:50.997Z,20.63
2018-07-25T00:21:20.628Z,20.64
2018-07-25T00:23:49.865Z,20.69
2018-07-25T00:26:19.427Z,20.65
2018-07-25T00:28:49.057Z,20.66
2018-07-25T00:31:18.337Z,20.64
2018-07-25T00:33:48.498Z,20.62
2018-07-25T00:36:18.058Z,20.56
2018-07-25T00:38:47.859Z,20.52
2018-07-25T00:41:17.455Z,20.49
2018-07-25T00:43:46.845Z,20.47
2018-07-25T00:46:16.346Z,20.47
2018-07-25T00:48:45.791Z,20.44
2018-07-25T00:51:15.624Z,20.41
2018-07-25T00:53:45.229Z,20.42
2018-07-25T00:56:14.582Z,20.35
2018-07-25T00:58:44.285Z,19.42
2018-07-25T01:01:13.816Z,20.34
2018-07-25T01:03:43.190Z,20.33
2018-07-25T01:06:12.893Z,20.33
2018-07-25T01:08:42.114Z,20.32
2018-07-25T01:11:11.522Z,20.34
2018-07-25T01:13:41.234Z,20.37
2018-07-25T01:16:10.612Z,20.36
2018-07-25T01:18:39.998Z,20.37
2018-07-25T01:21:09.936Z,20.36
2018-07-25T01:23:39.512Z,20.34
2018-07-25T01:26:08.917Z,20.05
2018-07-25T01:28:44.777Z,20.36
2018-07-25T01:31:14.520Z,20.41
2018-07-25T01:33:43.890Z,20.40
2018-07-25T01:36:13.718Z,20.34
2018-07-25T01:38:43.293Z,20.31
2018-07-25T01:41:12.573Z,20.28
2018-07-25T01:46:42.405Z,20.14
2018-07-25T01:49:11.962Z,20.12
2018-07-25T01:51:41.348Z,20.06
2018-07-25T01:54:10.700Z,19.97
2018-07-25T01:56:40.248Z,19.94
2018-07-25T01:59:09.699Z,19.88
2018-07-25T02:01:39.120Z,19.85
2018-07-25T02:04:08.576Z,19.83
2018-07-25T02:06:37.877Z,19.85
2018-07-25T02:09:09.977Z,19.90
2018-07-25T02:11:39.254Z,19.92
2018-07-25T02:14:08.832Z,19.96
2018-07-25T02:16:38.455Z,19.99
2018-07-25T02:19:07.827Z,20.08
2018-07-25T02:21:37.388Z,20.16
2018-07-25T02:24:06.768Z,20.15
2018-07-25T02:26:36.210Z,20.12
2018-07-25T02:29:06.330Z,20.10
2018-07-25T02:31:35.864Z,20.08
2018-07-25T02:34:10.699Z,20.13
2018-07-25T02:36:40.646Z,20.10
2018-07-25T02:39:12.271Z,20.09
2018-07-25T02:41:41.808Z,20.11
2018-07-25T02:44:11.332Z,20.12
2018-07-25T02:46:40.801Z,20.20
2018-07-25T02:49:10.501Z,20.21
2018-07-25T02:51:40.243Z,20.22
2018-07-25T02:54:09.861Z,20.29
2018-07-25T02:56:39.443Z,20.30
2018-07-25T02:59:08.941Z,20.20
2018-07-25T03:01:38.572Z,20.21
2018-07-25T03:04:08.189Z,20.18
2018-07-25T03:06:37.590Z,20.14
2018-07-25T03:09:09.250Z,20.11
2018-07-25T03:11:39.248Z,20.05
2018-07-25T03:14:08.852Z,20.06
2018-07-25T03:16:38.276Z,20.13
2018-07-25T03:19:07.915Z,20.22
2018-07-25T03:21:37.415Z,20.26
2018-07-25T03:24:06.869Z,20.23
2018-07-25T03:26:36.575Z,20.19
2018-07-25T03:29:05.959Z,20.18
2018-07-25T03:31:35.770Z,20.26
2018-07-25T03:34:05.709Z,20.27
2018-07-25T03:36:35.241Z,20.28
2018-07-25T03:39:05.519Z,20.29
2018-07-25T03:41:36.186Z,20.23
2018-07-25T03:44:05.623Z,20.19
2018-07-25T03:46:35.023Z,20.17
2018-07-25T03:49:04.981Z,20.14
2018-07-25T03:51:34.311Z,20.14
2018-07-25T03:54:03.682Z,20.15
2018-07-25T03:56:33.730Z,19.48
2018-07-25T03:59:03.159Z,20.18
2018-07-25T04:01:32.749Z,20.20
2018-07-25T04:04:02.583Z,20.25
2018-07-25T04:06:32.002Z,20.31
2018-07-25T04:09:01.523Z,20.36
2018-07-25T04:11:31.546Z,20.41
2018-07-25T04:14:01.206Z,20.41
2018-07-25T04:16:30.688Z,20.36
2018-07-25T04:19:00.301Z,20.31
2018-07-25T04:21:30.077Z,20.31
2018-07-25T04:23:59.323Z,20.37
2018-07-25T04:26:28.910Z,20.47
2018-07-25T04:28:58.907Z,20.53
2018-07-25T04:31:28.515Z,20.55
2018-07-25T04:33:58.290Z,20.63
2018-07-25T04:36:28.193Z,20.70
2018-07-25T04:38:57.514Z,20.75
2018-07-25T04:41:27.140Z,20.82
2018-07-25T04:43:56.725Z,20.84
2018-07-25T04:46:26.630Z,20.88
2018-07-25T04:48:56.071Z,20.95
2018-07-25T04:51:25.495Z,20.98
2018-07-25T04:53:54.912Z,21.05
2018-07-25T04:56:24.531Z,21.11
2018-07-25T04:58:54.240Z,21.17
2018-07-25T05:01:23.620Z,21.22
2018-07-25T05:03:53.287Z,21.23
2018-07-25T05:06:23.179Z,21.25
2018-07-25T05:08:52.517Z,21.31
2018-07-25T05:11:22.133Z,21.38
2018-07-25T05:13:51.871Z,21.47
2018-07-25T05:16:21.610Z,21.57
2018-07-25T05:18:51.112Z,21.65
2018-07-25T05:21:20.472Z,21.70
2018-07-25T05:23:49.912Z,21.78
2018-07-25T05:26:19.635Z,21.82
2018-07-25T05:28:49.044Z,21.89
2018-07-25T05:31:19.245Z,21.93
2018-07-25T05:33:49.134Z,22.00
2018-07-25T05:36:19.672Z,22.08
2018-07-25T05:38:49.327Z,22.11
2018-07-25T05:41:18.952Z,22.16
2018-07-25T05:43:47.950Z,22.24
2018-07-25T05:46:17.702Z,22.31
2018-07-25T05:48:47.172Z,22.42
2018-07-25T05:51:16.603Z,22.47
2018-07-25T05:53:46.443Z,22.55
2018-07-25T05:56:15.827Z,22.63
2018-07-25T05:58:45.210Z,22.72
2018-07-25T06:01:15.275Z,22.82
2018-07-25T06:03:44.616Z,23.01
2018-07-25T06:06:14.111Z,23.10
2018-07-25T06:08:44.249Z,23.15
2018-07-25T06:11:13.636Z,23.20
2018-07-25T06:13:42.939Z,23.26
2018-07-25T06:16:13.147Z,23.34
2018-07-25T06:18:42.496Z,23.46
2018-07-25T06:21:12.084Z,23.56
2018-07-25T06:23:41.775Z,23.64
2018-07-25T06:26:11.231Z,23.71
2018-07-25T06:28:40.938Z,23.76
2018-07-25T06:31:10.421Z,23.83
2018-07-25T06:33:39.872Z,23.86
2018-07-25T06:36:09.717Z,23.91
2018-07-25T06:38:39.537Z,24.03
2018-07-25T06:41:08.816Z,24.04
2018-07-25T06:43:38.458Z,24.13
2018-07-25T06:46:08.064Z,24.17
2018-07-25T06:48:37.599Z,24.23
2018-07-25T06:51:07.747Z,24.28
2018-07-25T06:53:37.507Z,24.33
2018-07-25T06:56:07.115Z,24.44
2018-07-25T06:58:36.670Z,24.48
2018-07-25T07:01:06.347Z,24.50
2018-07-25T07:03:35.850Z,24.55
2018-07-25T07:06:05.450Z,24.65
2018-07-25T07:08:35.402Z,24.80
2018-07-25T07:11:05.010Z,24.90
2018-07-25T07:13:34.412Z,24.97
2018-07-25T07:16:04.906Z,25.07
2018-07-25T07:18:34.375Z,25.18
2018-07-25T07:21:04.491Z,25.16
2018-07-25T07:23:33.907Z,25.25
2018-07-25T07:26:03.479Z,25.28
2018-07-25T07:28:32.903Z,25.32
2018-07-25T07:31:02.386Z,25.42
2018-07-25T07:33:31.994Z,25.55
2018-07-25T07:36:01.521Z,25.53
2018-07-25T07:38:31.021Z,25.53
2018-07-25T07:41:00.952Z,25.58
2018-07-25T07:43:30.455Z,25.59
2018-07-25T07:46:00.084Z,25.56
2018-07-25T07:48:29.448Z,25.59
2018-07-25T07:50:58.649Z,26.48
2018-07-25T07:53:29.474Z,28.17
2018-07-25T07:55:59.606Z,29.13
2018-07-25T07:58:28.791Z,29.39
2018-07-25T08:00:58.196Z,30.02
2018-07-25T08:03:27.879Z,30.17
2018-07-25T08:05:57.126Z,30.74
2018-07-25T08:08:26.497Z,30.73
2018-07-25T08:10:56.489Z,30.65
2018-07-25T08:13:25.786Z,30.84
2018-07-25T08:15:55.343Z,30.63
2018-07-25T08:18:25.270Z,30.25
2018-07-25T08:20:54.656Z,29.37
2018-07-25T08:23:24.098Z,28.82
2018-07-25T08:25:53.710Z,29.07
2018-07-25T08:28:23.577Z,29.12
2018-07-25T08:30:53.185Z,29.16
2018-07-25T08:33:22.762Z,29.05
2018-07-25T08:35:52.584Z,29.00
2018-07-25T08:38:42.258Z,28.82
2018-07-25T08:41:12.020Z,28.55
2018-07-25T08:43:42.645Z,28.73
2018-07-25T08:46:13.132Z,28.72
2018-07-25T08:48:42.992Z,28.80
2018-07-25T08:51:12.672Z,28.85
2018-07-25T08:53:42.071Z,28.93
2018-07-25T08:56:11.658Z,28.76
2018-07-25T08:58:41.229Z,28.43
2018-07-25T09:01:10.775Z,28.40
2018-07-25T09:03:40.076Z,28.50
2018-07-25T09:06:09.806Z,28.60
2018-07-25T09:08:38.998Z,28.68
2018-07-25T09:11:08.627Z,28.55
2018-07-25T09:13:38.122Z,28.45
2018-07-25T09:16:07.726Z,28.48
2018-07-25T09:18:37.435Z,28.42
2018-07-25T09:21:07.130Z,28.28
2018-07-25T09:23:36.553Z,28.13
2018-07-25T09:26:06.823Z,28.30
2018-07-25T09:28:36.585Z,28.54
2018-07-25T09:31:06.245Z,28.61
2018-07-25T09:33:36.003Z,28.05
2018-07-25T09:36:06.511Z,28.31
2018-07-25T09:38:36.091Z,28.20
2018-07-25T09:41:05.965Z,28.13
2018-07-25T09:43:35.431Z,28.41
2018-07-25T09:46:05.180Z,28.37
2018-07-25T09:48:34.442Z,28.33
2018-07-25T09:51:04.188Z,28.33
2018-07-25T09:53:33.976Z,28.54
2018-07-25T09:56:04.383Z,28.79
2018-07-25T09:58:34.344Z,28.71
2018-07-25T10:01:04.397Z,28.52
2018-07-25T10:03:33.654Z,28.56
2018-07-25T10:06:03.345Z,28.59
2018-07-25T10:08:33.039Z,28.43
2018-07-25T10:11:02.510Z,28.67
2018-07-25T10:13:33.246Z,28.78
2018-07-25T10:16:02.942Z,28.75
2018-07-25T10:18:32.599Z,28.57
2018-07-25T10:21:02.066Z,28.41
2018-07-25T10:23:31.778Z,28.42
2018-07-25T10:26:01.602Z,28.39
2018-07-25T10:28:31.052Z,28.42
2018-07-25T10:31:00.734Z,28.46
2018-07-25T10:33:30.830Z,28.28
2018-07-25T10:36:00.068Z,28.31
2018-07-25T10:38:29.691Z,28.23
2018-07-25T10:40:59.540Z,28.36
2018-07-25T10:43:29.159Z,28.27
2018-07-25T10:45:58.923Z,28.02
2018-07-25T10:48:28.457Z,28.13
2018-07-25T10:50:58.002Z,28.35
2018-07-25T10:53:27.579Z,28.30
2018-07-25T10:55:57.583Z,27.97
2018-07-25T10:58:26.961Z,27.80
2018-07-25T11:00:56.799Z,27.68
2018-07-25T11:03:26.632Z,27.60
2018-07-25T11:05:56.168Z,27.63
2018-07-25T11:08:25.815Z,27.73
2018-07-25T11:10:55.208Z,27.88
2018-07-25T11:13:24.836Z,27.99
2018-07-25T11:15:54.593Z,27.67
2018-07-25T11:18:23.925Z,28.14
2018-07-25T11:20:54.123Z,28.07
2018-07-25T11:23:23.733Z,28.26
2018-07-25T11:25:53.634Z,28.21
2018-07-25T11:28:23.252Z,27.88
2018-07-25T11:30:53.177Z,28.08
2018-07-25T11:33:22.633Z,28.05
2018-07-25T11:35:52.154Z,28.11
2018-07-25T11:38:21.812Z,28.19
2018-07-25T11:40:51.155Z,28.00
2018-07-25T11:43:20.914Z,28.02
2018-07-25T11:45:50.460Z,28.04
2018-07-25T11:48:19.784Z,28.12
2018-07-25T11:50:49.325Z,28.24
2018-07-25T11:53:19.207Z,28.12
2018-07-25T11:55:48.702Z,28.08
2018-07-25T11:58:18.062Z,28.27
2018-07-25T12:00:47.863Z,28.01
2018-07-25T12:03:17.304Z,28.20
2018-07-25T12:05:46.666Z,28.23
2018-07-25T12:08:16.553Z,28.28
2018-07-25T12:10:46.086Z,28.44
2018-07-25T12:13:15.520Z,28.41
2018-07-25T12:15:45.476Z,28.41
2018-07-25T12:18:15.105Z,28.44
2018-07-25T12:20:44.700Z,28.46
2018-07-25T12:23:14.804Z,28.19
2018-07-25T12:25:44.292Z,28.08
2018-07-25T12:28:13.798Z,28.23
2018-07-25T12:30:43.572Z,27.92
2018-07-25T12:33:13.124Z,27.90
2018-07-25T12:35:42.623Z,27.92
2018-07-25T12:38:12.429Z,28.08
2018-07-25T12:40:42.199Z,28.22
2018-07-25T12:43:11.612Z,28.24
2018-07-25T12:45:41.331Z,28.11
2018-07-25T12:48:10.811Z,28.06
2018-07-25T12:50:40.494Z,28.03
2018-07-25T12:53:10.258Z,27.88
2018-07-25T12:55:40.299Z,27.92
2018-07-25T12:58:09.530Z,27.92
2018-07-25T13:00:39.424Z,28.15
2018-07-25T13:03:09.299Z,28.14
2018-07-25T13:05:38.753Z,27.99
2018-07-25T13:08:08.669Z,27.95
2018-07-25T13:10:38.379Z,27.76
2018-07-25T13:13:08.232Z,27.84
2018-07-25T13:15:37.732Z,27.59
2018-07-25T13:18:07.660Z,27.64
2018-07-25T13:20:37.120Z,27.89
2018-07-25T13:23:06.931Z,28.06
2018-07-25T13:25:36.622Z,27.20
2018-07-25T13:28:06.259Z,28.01
2018-07-25T13:30:35.725Z,27.84
2018-07-25T13:33:05.542Z,27.95
2018-07-25T13:35:35.077Z,28.06
2018-07-25T13:38:04.900Z,27.71
2018-07-25T13:40:34.656Z,27.74
2018-07-25T13:43:04.296Z,27.82
2018-07-25T13:45:34.104Z,27.92
2018-07-25T13:48:03.792Z,27.87
2018-07-25T13:50:33.252Z,27.86
2018-07-25T13:53:03.478Z,27.94
2018-07-25T13:55:33.181Z,27.87
2018-07-25T13:58:02.472Z,27.78
2018-07-25T14:00:32.062Z,27.52
2018-07-25T14:03:01.664Z,27.65
2018-07-25T14:05:31.047Z,27.60
2018-07-25T14:08:00.890Z,27.88
2018-07-25T14:10:30.520Z,27.96
2018-07-25T14:13:00.170Z,28.05
2018-07-25T14:15:30.194Z,28.04
2018-07-25T14:17:59.690Z,27.69
2018-07-25T14:20:29.264Z,27.74
2018-07-25T14:22:59.328Z,27.95
2018-07-25T14:25:28.765Z,28.10
2018-07-25T14:27:58.373Z,27.88
2018-07-25T14:30:28.515Z,27.74
2018-07-25T14:32:58.066Z,27.70
2018-07-25T14:39:00.317Z,27.52
2018-07-25T14:41:29.957Z,27.62
2018-07-25T14:43:59.402Z,27.67
2018-07-25T14:46:29.264Z,27.76
2018-07-25T14:48:58.698Z,27.71
2018-07-25T14:51:29.356Z,27.84
2018-07-25T14:53:59.239Z,27.83
2018-07-25T14:56:29.015Z,27.91
2018-07-25T14:58:58.561Z,27.88
2018-07-25T15:01:29.819Z,27.75
2018-07-25T15:03:59.389Z,27.65
2018-07-25T15:06:28.794Z,27.45
2018-07-25T15:08:58.526Z,27.59
2018-07-25T15:11:28.560Z,27.74
2018-07-25T15:13:58.168Z,27.20
2018-07-25T15:16:28.130Z,27.25
2018-07-25T15:18:58.140Z,27.30
2018-07-25T15:21:27.486Z,27.38
2018-07-25T15:24:03.908Z,27.17
2018-07-25T15:26:33.359Z,27.62
2018-07-25T15:29:03.488Z,27.51
2018-07-25T15:31:33.421Z,27.26
2018-07-25T15:34:03.150Z,27.05
2018-07-25T15:36:41.748Z,27.04
2018-07-25T15:39:17.173Z,26.99
2018-07-25T15:41:47.926Z,26.86
2018-07-25T15:44:18.485Z,26.81
2018-07-25T15:46:47.868Z,26.59
2018-07-25T15:49:17.727Z,26.63
2018-07-25T15:51:47.221Z,26.74
2018-07-25T15:54:16.994Z,26.72
2018-07-25T15:56:46.621Z,25.31
2018-07-25T15:59:16.273Z,26.60
2018-07-25T16:01:45.905Z,26.47
2018-07-25T16:04:15.443Z,26.36
2018-07-25T16:06:45.057Z,26.53
2018-07-25T16:09:14.675Z,26.37
2018-07-25T16:11:44.494Z,26.52
2018-07-25T16:14:14.214Z,26.61
2018-07-25T16:16:43.957Z,26.49
2018-07-25T16:19:13.910Z,26.39
2018-07-25T16:21:43.425Z,26.20
2018-07-25T16:24:12.955Z,26.31
2018-07-25T16:26:42.869Z,26.29
2018-07-25T16:29:12.275Z,26.32
2018-07-25T16:31:42.118Z,26.25
2018-07-25T16:34:12.037Z,26.28
2018-07-25T16:36:41.819Z,26.07
2018-07-25T16:39:14.584Z,25.73
2018-07-25T16:41:44.337Z,25.80
2018-07-25T16:44:13.997Z,25.82
2018-07-25T16:46:43.615Z,25.78
2018-07-25T16:49:13.430Z,25.82
2018-07-25T16:51:43.113Z,25.73
2018-07-25T16:54:12.745Z,25.55
2018-07-25T16:56:42.762Z,25.56
2018-07-25T16:59:12.746Z,25.52
2018-07-25T17:01:42.537Z,25.54
2018-07-25T17:04:11.903Z,25.42
2018-07-25T17:06:41.880Z,25.47
2018-07-25T17:09:12.768Z,25.35
2018-07-25T17:11:42.747Z,25.25
2018-07-25T17:14:11.942Z,25.01
2018-07-25T17:16:41.333Z,24.99
2018-07-25T17:19:11.496Z,24.85
2018-07-25T17:21:41.016Z,24.90
2018-07-25T17:24:10.871Z,24.97
2018-07-25T17:26:40.556Z,24.96
2018-07-25T17:29:10.111Z,23.95
2018-07-25T17:31:39.905Z,25.03
2018-07-25T17:34:09.923Z,24.80
2018-07-25T17:36:39.334Z,24.69
2018-07-25T17:39:11.046Z,24.66
2018-07-25T17:41:41.398Z,24.68
2018-07-25T17:44:11.199Z,24.57
2018-07-25T17:46:41.046Z,24.51
2018-07-25T17:49:10.770Z,24.39
2018-07-25T17:51:40.611Z,24.52
2018-07-25T17:54:10.362Z,24.63
2018-07-25T17:56:39.790Z,24.50
2018-07-25T17:59:09.885Z,24.44
2018-07-25T18:01:39.586Z,24.41
2018-07-25T18:04:09.199Z,24.37
2018-07-25T18:06:38.835Z,24.42
2018-07-25T18:09:10.177Z,24.48
2018-07-25T18:11:39.883Z,24.32
2018-07-25T18:14:14.413Z,24.21
2018-07-25T18:16:44.984Z,24.08
2018-07-25T18:19:16.169Z,24.24
2018-07-25T18:21:46.005Z,24.20
2018-07-25T18:24:15.843Z,24.16
2018-07-25T18:26:45.439Z,24.18
2018-07-25T18:29:15.088Z,24.29
2018-07-25T18:31:44.902Z,24.21
2018-07-25T18:34:14.441Z,24.16
2018-07-25T18:36:44.243Z,24.10
2018-07-25T18:39:14.025Z,24.18
2018-07-25T18:41:43.753Z,24.13
2018-07-25T18:44:13.437Z,24.18
2018-07-25T18:46:45.241Z,24.10
2018-07-25T18:49:15.309Z,24.07
2018-07-25T18:51:44.922Z,23.95
2018-07-25T18:54:15.641Z,23.96
2018-07-25T18:56:45.749Z,23.99
2018-07-25T18:59:15.139Z,24.04
2018-07-25T19:01:46.517Z,23.97
2018-07-25T19:04:16.329Z,23.96
2018-07-25T19:06:47.039Z,23.83
2018-07-25T19:09:17.671Z,23.84
2018-07-25T19:11:47.457Z,23.74
2018-07-25T19:14:21.813Z,23.63
2018-07-25T19:16:51.629Z,23.66
2018-07-25T19:19:21.127Z,23.73
2018-07-25T19:21:50.436Z,23.69
2018-07-25T19:24:20.777Z,23.68
2018-07-25T19:26:50.093Z,23.62
2018-07-25T19:29:19.962Z,23.62
2018-07-25T19:31:51.792Z,23.51
2018-07-25T19:34:21.594Z,23.44
2018-07-25T19:36:52.498Z,23.41
2018-07-25T19:39:22.079Z,23.42
2018-07-25T19:41:53.880Z,23.39
2018-07-25T19:44:25.983Z,23.40
2018-07-25T19:46:56.082Z,23.29
2018-07-25T19:49:26.477Z,23.32
2018-07-25T19:51:55.834Z,23.35
2018-07-25T19:54:25.515Z,22.53
2018-07-25T19:56:55.467Z,23.22
2018-07-25T19:59:26.054Z,23.23
2018-07-25T20:01:55.657Z,23.16
2018-07-25T20:04:25.463Z,23.05
2018-07-25T20:06:55.039Z,23.04
2018-07-25T20:09:25.533Z,22.95
2018-07-25T20:11:55.069Z,22.90
2018-07-25T20:16:36.216Z,22.86
2018-07-25T20:19:06.795Z,22.71
2018-07-25T20:21:36.494Z,22.69
2018-07-25T20:24:07.302Z,22.64
2018-07-25T20:26:37.769Z,22.59
2018-07-25T20:29:07.338Z,22.65
2018-07-25T20:31:37.554Z,22.66
2018-07-25T20:34:07.088Z,22.71
2018-07-25T20:36:36.550Z,22.73
2018-07-25T20:39:10.399Z,22.66
2018-07-25T20:41:40.162Z,22.67
2018-07-25T20:44:10.191Z,22.65
2018-07-25T20:46:39.990Z,22.66
2018-07-25T20:49:10.079Z,22.67
2018-07-25T20:51:39.530Z,22.66
2018-07-25T20:54:09.370Z,22.58
2018-07-25T20:56:39.076Z,22.53
2018-07-25T20:59:08.567Z,22.46
2018-07-25T21:01:38.121Z,22.40
2018-07-25T21:04:07.718Z,22.41
2018-07-25T21:06:37.619Z,22.39
2018-07-25T21:09:08.445Z,22.31
2018-07-25T21:11:38.114Z,22.28
2018-07-25T21:14:09.575Z,22.22
2018-07-25T21:16:39.153Z,22.21
2018-07-25T21:19:09.349Z,22.18
2018-07-25T21:21:38.791Z,22.18
2018-07-25T21:24:08.332Z,22.20
2018-07-25T21:26:37.965Z,22.13
2018-07-25T21:29:07.504Z,22.07
2018-07-25T21:31:37.115Z,22.04
2018-07-25T21:34:06.841Z,22.00
2018-07-25T21:36:36.426Z,21.99
2018-07-25T21:39:09.061Z,21.96
2018-07-25T21:41:39.066Z,21.97
2018-07-25T21:44:09.117Z,22.03
2018-07-25T21:46:38.820Z,21.97
2018-07-25T21:49:09.145Z,21.88
2018-07-25T21:51:38.575Z,21.83
2018-07-25T21:54:08.592Z,21.78
2018-07-25T21:56:38.727Z,21.76
2018-07-25T21:59:08.729Z,21.76
2018-07-25T22:01:38.148Z,21.74
2018-07-25T22:04:08.154Z,21.73
2018-07-25T22:06:39.402Z,21.77
2018-07-25T22:09:11.959Z,21.77
2018-07-25T22:11:42.188Z,21.73
2018-07-25T22:14:12.153Z,21.75
2018-07-25T22:16:41.985Z,21.74
2018-07-25T22:19:12.615Z,21.71
2018-07-25T22:21:42.427Z,21.64
2018-07-25T22:24:12.490Z,21.60
2018-07-25T22:26:42.724Z,21.56
2018-07-25T22:29:12.354Z,21.51
2018-07-25T22:31:42.090Z,21.46
2018-07-25T22:34:13.879Z,21.40
2018-07-25T22:36:43.948Z,21.40
2018-07-25T22:39:13.758Z,21.38
2018-07-25T22:41:43.417Z,21.36
2018-07-25T22:44:13.524Z,21.33
2018-07-25T22:46:43.503Z,21.28
2018-07-25T22:49:16.974Z,21.25
2018-07-25T22:51:46.865Z,21.19
2018-07-25T22:54:17.006Z,21.22
2018-07-25T22:56:46.821Z,21.19
2018-07-25T22:59:18.571Z,21.19
2018-07-25T23:01:47.955Z,21.22
2018-07-25T23:04:17.553Z,21.26
2018-07-25T23:06:47.294Z,21.23
2018-07-25T23:09:18.538Z,21.20
2018-07-25T23:11:50.786Z,21.21
2018-07-25T23:14:20.188Z,21.16
2018-07-25T23:16:49.955Z,21.06
2018-07-25T23:19:19.811Z,21.02
2018-07-25T23:21:49.543Z,20.99
2018-07-25T23:24:19.247Z,21.00
2018-07-25T23:26:48.693Z,20.93
2018-07-25T23:29:18.312Z,20.82
2018-07-25T23:31:48.005Z,20.80
2018-07-25T23:34:17.930Z,20.79
2018-07-25T23:36:47.623Z,20.81
2018-07-25T23:39:17.327Z,20.83
2018-07-25T23:41:46.953Z,20.84
2018-07-25T23:44:16.559Z,20.80
2018-07-25T23:46:46.031Z,20.76
2018-07-25T23:49:15.356Z,20.67
2018-07-25T23:51:44.783Z,20.61
2018-07-25T23:54:16.576Z,20.59
2018-07-25T23:56:46.580Z,20.57
2018-07-25T23:59:16.608Z,20.55
